Latest Weather Observations for Rottnest Island

IDW60801

Issued at 4:32 pm WST Friday 22 May 2015 (issued every 30 minutes, with the page automatically refreshed every 10 minutes)

About weather observations | Map of weather stations | Latest weather observations for WA | Other Formats
Station Details ID: 009193 Name: ROTTNEST ISLAND Lat: -32.01 Lon: 115.50 Height: 43.1 m
Data from the previous 72 hours. | See also: Recent months at Rottnest Island
Date/Time
WST
Temp
°C
App
Temp
°C
Dew
Point
Rel
Hum
%
Delta-T
°C
Wind Press
QNH
hPa
Press
MSL
hPa
Rain
since 9 am
mm
Dir
 
Spd
km/h
Gust
km/h
Spd
kts
Gust
kts
22/04:30pm 18.5 16.0 9.6 56 4.7 SSW 13 17 7 9 1017.2 1017.1 0.0
22/04:00pm 18.8 16.4 8.7 52 5.3 S 11 17 6 9 1017.1 1017.0 0.0
22/03:30pm 19.1 16.9 9.3 53 5.2 SSW 11 15 6 8 1017.0 1016.9 0.0
22/03:00pm 20.0 18.5 8.4 47 6.0 SW 6 9 3 5 1017.1 1017.0 0.0
22/02:30pm 19.1 17.0 8.1 49 5.7 S 9 13 5 7 1017.0 1016.9 0.0
22/02:00pm 20.6 18.7 7.6 43 6.7 NNE 7 13 4 7 1017.2 1017.1 0.0
22/01:30pm 19.7 17.1 7.8 46 6.1 NNE 11 17 6 9 1017.3 1017.2 0.0
22/01:00pm 19.4 16.9 8.4 49 5.7 NE 11 17 6 9 1017.6 1017.5 0.0
22/12:30pm 19.5 17.0 9.7 53 5.2 NE 13 20 7 11 1017.9 1017.8 0.0
22/12:00pm 19.3 15.8 8.6 50 5.6 NE 17 20 9 11 1018.5 1018.4 0.0
22/11:30am 18.2 14.7 8.7 54 4.9 NE 17 22 9 12 1018.9 1018.8 0.0
22/11:00am 18.0 14.0 8.3 53 5.0 NE 19 26 10 14 1019.3 1019.2 0.0
22/10:30am 17.3 13.1 8.4 56 4.6 NE 20 26 11 14 1019.5 1019.4 0.0
22/10:00am 16.8 12.7 8.8 59 4.1 ENE 20 28 11 15 1019.7 1019.6 0.0
22/09:30am 16.6 12.4 8.3 58 4.2 NE 20 28 11 15 1019.7 1019.6 0.0
22/09:00am 16.1 11.8 7.8 58 4.2 ENE 20 26 11 14 1020.1 1020.0 -
22/08:30am 15.6 11.6 8.1 61 3.8 ENE 19 26 10 14 1020.2 1020.1 -
22/08:00am 14.8 11.1 8.1 64 3.3 ENE 17 24 9 13 1020.3 1020.2 -
22/07:30am 14.5 10.3 7.5 63 3.5 ENE 19 24 10 13 1020.1 1020.0 -
22/07:00am 14.6 10.2 7.6 63 3.5 ENE 20 26 11 14 1020.0 1019.9 -
22/06:30am 14.5 10.3 7.5 63 3.5 ENE 19 24 10 13 1019.9 1019.8 -
22/06:00am 14.4 10.2 7.5 63 3.4 NE 19 28 10 15 1019.9 1019.8 -
22/05:30am 14.4 10.2 7.5 63 3.4 NE 19 22 10 12 1020.1 1020.0 -
22/05:00am 14.2 10.3 7.3 63 3.4 NE 17 22 9 12 1020.3 1020.2 -
22/04:30am 14.0 10.9 7.3 64 3.3 ENE 13 20 7 11 1020.2 1020.1 -
22/04:00am 14.1 11.0 7.4 64 3.3 ENE 13 19 7 10 1020.3 1020.2 -
22/03:30am 13.8 10.3 7.1 64 3.3 ENE 15 20 8 11 1020.4 1020.3 -
22/03:00am 13.8 10.3 7.3 65 3.2 E 15 19 8 10 1020.6 1020.5 0.0
22/02:30am 14.0 10.0 6.8 62 3.5 E 17 20 9 11 1020.8 1020.7 -
22/02:00am 14.1 10.5 6.7 61 3.6 E 15 19 8 10 1021.0 1020.9 -
22/01:30am 14.5 10.5 6.6 59 3.8 ENE 17 20 9 11 1021.3 1021.2 -
22/01:00am 14.9 10.9 6.5 57 4.1 ENE 17 20 9 11 1021.6 1021.5 -
22/12:30am 15.5 11.4 6.0 53 4.6 ENE 17 24 9 13 1021.8 1021.7 -
22/12:00am 15.2 10.9 5.4 52 4.6 E 17 24 9 13 1021.8 1021.7 -
 
Date/Time
WST
Temp
°C
App
Temp
°C
Dew
Point
Rel
Hum
%
Delta-T
°C
Wind Press
QNH
hPa
Press
MSL
hPa
Rain
since 9 am
mm
Dir
 
Spd
km/h
Gust
km/h
Spd
kts
Gust
kts
21/11:30pm 15.0 10.9 6.3 56 4.2 E 17 24 9 13 1022.0 1021.9 -
21/11:00pm 15.4 11.7 6.4 55 4.4 E 15 20 8 11 1022.0 1021.9 -
21/10:30pm 15.8 11.7 6.3 53 4.6 ESE 17 22 9 12 1022.2 1022.1 -
21/10:00pm 16.1 12.4 6.3 52 4.8 E 15 20 8 11 1022.5 1022.4 -
21/09:30pm 16.4 13.0 6.0 50 5.1 E 13 20 7 11 1022.6 1022.5 -
21/09:00pm 16.2 12.5 6.1 51 4.9 ESE 15 22 8 12 1022.4 1022.3 0.0
21/08:30pm 16.1 12.0 6.3 52 4.8 E 17 24 9 13 1022.5 1022.4 -
21/08:00pm 16.3 12.2 6.2 51 4.9 E 17 22 9 12 1022.6 1022.5 -
21/07:30pm 16.5 11.9 5.8 49 5.2 ESE 19 28 10 15 1022.7 1022.6 -
21/07:00pm 16.5 11.9 5.8 49 5.2 E 19 26 10 14 1022.6 1022.5 -
21/06:30pm 16.4 11.6 5.4 48 5.3 E 20 28 11 15 1022.5 1022.4 -
21/06:00pm 16.8 11.1 4.8 45 5.7 E 24 32 13 17 1022.3 1022.2 -
21/05:30pm 17.0 12.2 5.6 47 5.5 ESE 20 26 11 14 1022.1 1022.0 -
21/05:00pm 17.0 12.7 5.3 46 5.6 ESE 17 28 9 15 1021.9 1021.8 -
21/04:30pm 17.4 12.2 5.7 46 5.7 E 22 30 12 16 1022.0 1021.9 -
21/04:00pm 17.7 13.0 5.9 46 5.7 E 20 28 11 15 1022.2 1022.1 -
21/03:30pm 17.7 12.6 5.9 46 5.8 E 22 30 12 16 1022.6 1022.5 -
21/03:00pm 17.7 12.6 5.9 46 5.7 E 22 33 12 18 1022.8 1022.7 -
21/02:30pm 17.2 12.1 6.1 48 5.4 E 22 30 12 16 1022.9 1022.8 -
21/02:00pm 16.4 11.4 6.5 52 4.8 E 22 28 12 15 1023.2 1023.1 -
21/01:30pm 15.9 10.3 5.5 50 5.0 E 24 33 13 18 1023.6 1023.5 -
21/01:00pm 15.7 10.6 6.2 53 4.6 NE 22 28 12 15 1024.1 1024.0 -
21/12:30pm 16.2 10.6 5.5 49 5.1 NE 24 35 13 19 1024.5 1024.4 -
21/12:00pm 16.4 10.0 5.1 47 5.4 NE 28 35 15 19 1024.7 1024.6 -
21/11:30am 16.5 - 5.2 47 5.4 - - - - - 1025.4 - -
21/11:00am 15.1 - 5.0 51 4.7 - - - - - 1025.7 1025.6 -
21/10:30am 14.6 - 4.3 50 4.8 - - - - - 1026.1 - -
21/10:00am 14.1 - 4.9 54 4.3 - - - - - 1026.3 1026.2 -
21/09:30am 12.6 - 4.8 59 3.6 - - - - - 1026.5 - -
21/09:00am 13.2 - 4.6 56 3.9 - - - - - 1026.7 1026.6 0.0
21/08:30am 13.0 - 4.4 56 3.9 - - - - - 1026.9 - -
21/08:00am 12.6 - 4.3 57 3.7 - - - - - 1026.7 1026.6 -
21/07:30am 12.4 - 4.1 57 3.8 - - - - - 1026.5 - -
21/07:00am 12.2 - 4.4 59 3.5 - - - - - 1026.5 1026.4 -
21/06:30am 12.6 - 4.6 58 3.7 - - - - - 1026.3 - -
21/06:00am 12.5 - 4.5 58 3.6 - - - - - 1026.2 1026.1 -
21/05:30am 12.5 - 4.5 58 3.7 - - - - - 1026.0 - -
21/05:00am 12.6 - 4.6 58 3.6 - - - - - 1026.1 1026.0 -
21/04:30am 12.5 - 4.5 58 3.7 - - - - - 1026.0 - -
21/04:00am 12.6 - 4.3 57 3.8 - - - - - 1026.1 1026.0 -
21/03:30am 12.7 - 4.4 57 3.8 - - - - - 1026.2 - -
21/03:00am 13.1 - 4.5 56 3.9 - - - - - 1026.4 1026.3 0.0
21/02:30am 12.7 - 4.7 58 3.7 - - - - - 1026.8 - -
21/02:00am 13.1 - 4.3 55 4.0 - - - - - 1026.9 1026.8 -
21/01:30am 13.1 - 4.3 55 4.0 - - - - - 1027.1 - -
21/01:00am 13.2 - 4.1 54 4.1 - - - - - 1027.2 1027.1 -
21/12:30am 13.3 - 4.5 55 4.0 - - - - - 1027.4 - -
21/12:00am 13.3 - 4.2 54 4.1 - - - - - 1027.3 1027.2 -
 
Date/Time
WST
Temp
°C
App
Temp
°C
Dew
Point
Rel
Hum
%
Delta-T
°C
Wind Press
QNH
hPa
Press
MSL
hPa
Rain
since 9 am
mm
Dir
 
Spd
km/h
Gust
km/h
Spd
kts
Gust
kts
20/11:30pm 13.5 - 4.6 55 4.1 - - - - - 1027.4 - -
20/11:00pm 13.5 - 5.4 58 3.8 - - - - - 1027.6 1027.5 -
20/10:30pm 13.5 - 4.9 56 4.0 - - - - - 1027.8 - -
20/10:00pm 13.6 - 5.0 56 4.0 - - - - - 1027.9 1027.8 -
20/09:30pm 13.6 - 5.5 58 3.8 - - - - - 1028.0 - -
20/09:00pm 13.8 - 5.9 59 3.7 - - - - - 1028.0 1027.9 0.0
20/08:30pm 14.1 - 5.5 56 4.1 - - - - - 1028.0 - -
20/08:00pm 14.3 - 5.4 55 4.2 - - - - - 1028.0 1027.9 -
20/07:30pm 14.4 - 5.2 54 4.3 - - - - - 1028.0 - -
20/07:00pm 14.5 - 4.8 52 4.5 - - - - - 1027.9 1027.8 -
20/06:30pm 14.4 - 4.7 52 4.5 - - - - - 1027.8 - -
20/06:00pm 14.5 - 4.2 50 4.7 - - - - - 1027.7 1027.6 -
20/05:30pm 14.7 - 4.1 49 4.9 - - - - - 1027.5 - -
20/05:00pm 14.8 - 4.2 49 4.9 - - - - - 1027.4 1027.3 -
20/04:30pm 15.3 - 4.7 49 5.0 - - - - - 1027.2 - -
20/04:00pm 15.6 - 4.6 48 5.1 - - - - - 1027.1 1027.0 -
20/03:30pm 15.9 - 5.2 49 5.1 - - - - - 1027.1 - -
20/03:00pm 15.7 - 5.0 49 5.0 - - - - - 1027.0 1026.9 0.0
20/02:30pm 15.6 - 5.5 51 4.8 - - - - - 1027.0 - -
20/02:00pm 15.5 - 5.4 51 4.8 - - - - - 1027.2 1027.1 -
20/01:30pm 15.6 - 5.8 52 4.7 - - - - - 1027.5 - -
20/01:00pm 15.3 - 6.1 54 4.4 - - - - - 1027.8 1027.7 -
20/12:30pm 15.2 - 5.7 53 4.5 - - - - - 1028.1 - -
20/12:00pm 15.1 - 5.6 53 4.5 - - - - - 1028.7 1028.7 -
20/11:30am 14.5 - 5.3 54 4.3 - - - - - 1029.1 - -
20/11:00am 14.2 - 5.6 56 4.0 - - - - - 1029.5 1029.5 -
20/10:30am 14.1 - 6.2 59 3.8 - - - - - 1029.7 - -
20/10:00am 13.6 - 6.0 60 3.6 - - - - - 1029.7 1029.7 -
20/09:30am 12.9 - 6.0 63 3.3 - - - - - 1029.8 - -
20/09:00am 12.6 - 6.4 66 2.9 - - - - - 1029.8 1029.8 0.0
20/08:30am 12.1 - 5.9 66 2.9 - - - - - 1029.6 - -
20/08:00am 11.5 - 6.2 70 2.5 - - - - - 1029.4 1029.4 -
20/07:30am 11.0 - 6.4 73 2.2 - - - - - 1029.0 - -
20/07:00am 10.9 - 6.3 73 2.1 - - - - - 1028.8 1028.8 -
20/06:30am 11.0 - 6.2 72 2.2 - - - - - 1028.4 - -
20/06:00am 11.1 - 6.3 72 2.2 - - - - - 1028.1 1028.0 -
20/05:30am 11.1 - 6.3 72 2.3 - - - - - 1028.1 - -
20/05:00am 11.2 - 6.1 71 2.4 - - - - - 1027.9 1027.8 -
20/04:30am 11.3 - 6.0 70 2.5 - - - - - 1027.7 - -
20/04:00am 11.5 - 6.2 70 2.5 - - - - - 1027.6 1027.5 -
20/03:30am 11.5 - 6.0 69 2.6 - - - - - 1027.6 - -
20/03:00am 11.6 - 5.9 68 2.6 - - - - - 1027.6 1027.5 0.0
20/02:30am 11.9 - 6.0 67 2.8 - - - - - 1027.7 - -
20/02:00am 12.0 - 6.1 67 2.8 - - - - - 1027.7 1027.6 -
20/01:30am 12.1 - 5.9 66 2.9 - - - - - 1027.6 - -
20/01:00am 12.3 - 5.7 64 3.1 - - - - - 1027.5 1027.4 -
20/12:30am 12.8 - 5.9 63 3.3 - - - - - 1027.5 - -
20/12:00am 12.8 - 6.6 66 2.9 - - - - - 1027.5 1027.4 -
 
Date/Time
WST
Temp
°C
App
Temp
°C
Dew
Point
Rel
Hum
%
Delta-T
°C
Wind Press
QNH
hPa
Press
MSL
hPa
Rain
since 9 am
mm
Dir
 
Spd
km/h
Gust
km/h
Spd
kts
Gust
kts
19/11:30pm 13.2 - 6.5 64 3.2 - - - - - 1027.4 - -
19/11:00pm 13.7 - 6.8 63 3.3 - - - - - 1027.3 1027.2 -
19/10:30pm 14.0 - 6.4 60 3.7 - - - - - 1027.2 - -
19/10:00pm 14.5 - 6.6 59 3.8 - - - - - 1027.1 1027.0 -
19/09:30pm 15.0 - 6.3 56 4.2 - - - - - 1026.8 - -
19/09:00pm 14.9 - 6.2 56 4.2 - - - - - 1026.8 1026.7 0.0
19/08:30pm 14.7 - 5.8 55 4.3 - - - - - 1026.7 - -
19/08:00pm 14.9 - 6.5 57 4.1 - - - - - 1026.7 1026.6 -
19/07:30pm 14.9 - 6.7 58 4.0 - - - - - 1026.4 - -
19/07:00pm 15.1 - 7.2 59 3.9 - - - - - 1026.0 1025.9 -
19/06:30pm 15.2 - 6.7 57 4.2 - - - - - 1025.9 - -
19/06:00pm 15.1 - 7.2 59 3.9 - - - - - 1025.5 1025.4 -
19/05:30pm 15.3 - 7.1 58 4.0 - - - - - 1025.1 - -
19/05:00pm 15.7 - 8.0 60 3.9 - - - - - 1024.9 1024.8 -

Other Formats:

Comma delimited format used in spreadsheet applications
http://www.bom.gov.au/fwo/IDW60801/IDW60801.94602.axf

JavaScript Object Notation format (JSON) in row-major order
http://www.bom.gov.au/fwo/IDW60801/IDW60801.94602.json